createdAt,value
2022-09-01T00:00:01.331Z,1.13
2022-09-01T00:02:28.984Z,1.50
2022-09-01T00:04:59.567Z,1.00
2022-09-01T00:07:30.672Z,1.00
2022-09-01T00:10:01.662Z,1.25
2022-09-01T00:12:29.250Z,1.10
2022-09-01T00:14:55.907Z,1.10
2022-09-01T00:17:22.908Z,0.95
2022-09-01T00:19:49.506Z,0.80
2022-09-01T00:22:16.329Z,1.17
2022-09-01T00:24:42.970Z,1.30
2022-09-01T00:27:09.496Z,0.75
2022-09-01T00:29:36.158Z,1.02
2022-09-01T00:32:03.288Z,1.52
2022-09-01T00:34:29.930Z,1.10
2022-09-01T00:36:56.517Z,1.30
2022-09-01T00:39:23.024Z,1.17
2022-09-01T00:41:50.842Z,1.15
2022-09-01T00:44:23.242Z,1.02
2022-09-01T00:46:55.575Z,1.17
2022-09-01T00:49:31.372Z,1.38
2022-09-01T00:52:07.305Z,1.40
2022-09-01T00:54:40.109Z,1.33
2022-09-01T00:57:09.642Z,1.40
2022-09-01T00:59:41.855Z,1.33
2022-09-01T01:02:08.509Z,1.48
2022-09-01T01:04:35.211Z,1.25
2022-09-01T01:07:03.109Z,1.15
2022-09-01T01:09:38.471Z,1.15
2022-09-01T01:12:05.938Z,1.65
2022-09-01T01:14:37.006Z,1.10
2022-09-01T01:17:03.778Z,0.93
2022-09-01T01:20:03.283Z,1.48
2022-09-01T01:22:54.268Z,1.40
2022-09-01T01:25:22.538Z,1.30
2022-09-01T01:27:49.266Z,1.40
2022-09-01T01:30:18.187Z,1.27
2022-09-01T01:32:45.761Z,1.73
2022-09-01T01:35:14.907Z,1.40
2022-09-01T01:37:46.630Z,1.55
2022-09-01T01:40:15.779Z,1.70
2022-09-01T01:42:46.090Z,1.40
2022-09-01T01:45:17.287Z,1.33
2022-09-01T01:47:51.712Z,1.02
2022-09-01T01:50:18.324Z,1.60
2022-09-01T01:52:45.491Z,1.15
2022-09-01T01:55:12.842Z,1.88
2022-09-01T01:57:48.905Z,1.50
2022-09-01T02:00:29.991Z,1.20
2022-09-01T02:02:57.578Z,1.38
2022-09-01T02:05:32.209Z,1.38
2022-09-01T02:08:22.007Z,1.17
2022-09-01T02:10:51.041Z,1.50
2022-09-01T02:13:20.979Z,1.58
2022-09-01T02:15:50.707Z,1.33
2022-09-01T02:18:24.702Z,1.83
2022-09-01T02:20:53.282Z,1.60
2022-09-01T02:23:23.559Z,1.63
2022-09-01T02:26:15.128Z,1.55
2022-09-01T02:28:44.203Z,1.58
2022-09-01T02:31:11.813Z,1.02
2022-09-01T02:33:40.129Z,2.10
2022-09-01T02:36:13.970Z,1.40
2022-09-01T02:38:43.631Z,1.13
2022-09-01T02:41:14.415Z,1.90
2022-09-01T02:43:43.576Z,1.15
2022-09-01T02:46:10.298Z,1.40
2022-09-01T02:48:40.372Z,1.10
2022-09-01T02:51:18.609Z,1.35
2022-09-01T02:53:49.658Z,1.77
2022-09-01T02:56:17.151Z,1.88
2022-09-01T02:58:48.191Z,1.77
2022-09-01T03:01:21.554Z,2.25
2022-09-01T03:03:50.268Z,1.83
2022-09-01T03:06:23.125Z,2.00
2022-09-01T03:08:54.486Z,1.73
2022-09-01T03:11:23.821Z,1.77
2022-09-01T03:13:50.658Z,1.00
2022-09-01T03:16:17.299Z,2.00
2022-09-01T03:18:43.926Z,1.20
2022-09-01T03:21:16.129Z,1.15
2022-09-01T03:23:47.349Z,2.03
2022-09-01T03:26:15.074Z,1.50
2022-09-01T03:28:41.694Z,1.90
2022-09-01T03:31:09.103Z,1.48
2022-09-01T03:33:36.851Z,1.20
2022-09-01T03:36:04.711Z,1.25
2022-09-01T03:38:44.033Z,2.25
2022-09-01T03:41:13.244Z,1.90
2022-09-01T03:43:47.096Z,1.27
2022-09-01T03:46:36.934Z,1.20
2022-09-01T03:49:07.523Z,2.42
2022-09-01T03:51:34.436Z,0.95
2022-09-01T03:54:01.041Z,1.20
2022-09-01T03:56:28.841Z,1.10
2022-09-01T03:58:58.052Z,1.27
2022-09-01T04:01:26.659Z,2.78
2022-09-01T04:03:53.761Z,1.40
2022-09-01T04:06:21.354Z,1.52
2022-09-01T04:08:48.240Z,1.25
2022-09-01T04:11:24.163Z,2.13
2022-09-01T04:13:51.710Z,1.13
2022-09-01T04:16:44.517Z,1.20
2022-09-01T04:19:25.429Z,1.10
2022-09-01T04:21:59.881Z,1.30
2022-09-01T04:24:28.369Z,2.60
2022-09-01T04:27:02.407Z,1.45
2022-09-01T04:29:31.513Z,1.92
2022-09-01T04:32:05.341Z,1.67
2022-09-01T04:34:37.391Z,1.55
2022-09-01T04:37:09.199Z,1.20
2022-09-01T04:39:36.886Z,2.25
2022-09-01T04:42:06.332Z,0.98
2022-09-01T04:44:32.836Z,1.52
2022-09-01T04:46:59.358Z,2.88
2022-09-01T04:49:27.146Z,1.40
2022-09-01T04:51:54.372Z,1.15
2022-09-01T04:54:22.849Z,1.52
2022-09-01T04:56:51.436Z,1.80
2022-09-01T04:59:21.576Z,2.38
2022-09-01T05:01:50.545Z,1.40
2022-09-01T05:04:22.756Z,1.33
2022-09-01T05:06:53.080Z,1.75
2022-09-01T05:09:20.401Z,1.75
2022-09-01T05:11:48.650Z,2.13
2022-09-01T05:14:19.156Z,1.38
2022-09-01T05:16:46.069Z,1.65
2022-09-01T05:19:17.623Z,1.20
2022-09-01T05:21:46.974Z,1.33
2022-09-01T05:24:17.542Z,1.63
2022-09-01T05:26:47.572Z,1.30
2022-09-01T05:29:17.495Z,1.23
2022-09-01T05:31:49.609Z,2.33
2022-09-01T05:34:26.424Z,1.30
2022-09-01T05:36:58.134Z,1.60
2022-09-01T05:39:26.236Z,1.73
2022-09-01T05:41:53.992Z,1.30
2022-09-01T05:44:25.008Z,1.60
2022-09-01T05:46:53.265Z,2.10
2022-09-01T05:49:20.162Z,2.20
2022-09-01T05:51:52.458Z,1.75
2022-09-01T05:54:23.688Z,1.42
2022-09-01T05:56:50.366Z,1.83
2022-09-01T05:59:25.645Z,1.77
2022-09-01T06:01:54.198Z,1.83
2022-09-01T06:04:22.985Z,1.20
2022-09-01T06:07:07.884Z,2.35
2022-09-01T06:09:45.004Z,1.17
2022-09-01T06:12:18.547Z,2.03
2022-09-01T06:14:48.410Z,1.60
2022-09-01T06:17:16.762Z,1.95
2022-09-01T06:19:44.215Z,2.15
2022-09-01T06:22:10.919Z,1.23
2022-09-01T06:24:40.095Z,1.70
2022-09-01T06:27:10.978Z,2.50
2022-09-01T06:29:41.765Z,1.67
2022-09-01T06:32:13.266Z,1.90
2022-09-01T06:34:42.674Z,1.02
2022-09-01T06:37:09.969Z,1.77
2022-09-01T06:39:36.764Z,1.60
2022-09-01T06:42:06.037Z,2.72
2022-09-01T06:44:33.511Z,1.38
2022-09-01T06:47:00.489Z,1.23
2022-09-01T06:49:33.256Z,2.05
2022-09-01T06:52:00.963Z,1.33
2022-09-01T06:54:27.805Z,1.45
2022-09-01T06:56:54.384Z,1.77
2022-09-01T06:59:21.867Z,1.00
2022-09-01T07:02:01.345Z,1.05
2022-09-01T07:04:31.492Z,1.10
2022-09-01T07:06:59.385Z,1.50
2022-09-01T07:09:47.429Z,1.38
2022-09-01T07:12:29.146Z,1.40
2022-09-01T07:17:52.326Z,1.27
2022-09-01T07:20:29.393Z,1.20
2022-09-01T07:23:05.665Z,1.20
2022-09-01T07:39:48.624Z,1.25
2022-09-01T07:42:31.639Z,1.00
2022-09-01T07:45:27.649Z,1.30
2022-09-01T07:47:54.906Z,0.82
2022-09-01T07:50:39.912Z,1.00
2022-09-01T07:53:09.235Z,1.02
2022-09-01T07:55:36.566Z,0.82
2022-09-01T07:58:03.085Z,1.02
2022-09-01T08:00:31.808Z,0.80
2022-09-01T08:02:59.098Z,0.90
2022-09-01T08:05:27.278Z,1.00
2022-09-01T08:07:54.785Z,1.10
2022-09-01T08:10:21.674Z,0.90
2022-09-01T08:12:56.328Z,0.90
2022-09-01T08:15:41.437Z,1.10
2022-09-01T08:18:10.663Z,1.10
2022-09-01T08:20:39.984Z,1.02
2022-09-01T08:23:07.426Z,1.00
2022-09-01T08:25:36.114Z,1.00
2022-09-01T08:28:03.052Z,0.70
2022-09-01T08:30:32.603Z,0.90
2022-09-01T08:33:10.283Z,0.90
2022-09-01T08:35:39.506Z,0.95
2022-09-01T08:38:06.097Z,1.30
2022-09-01T08:40:32.870Z,0.80
2022-09-01T08:43:25.919Z,0.75
2022-09-01T08:45:56.059Z,0.77
2022-09-01T08:49:16.422Z,0.88
2022-09-01T08:51:33.587Z,0.88
2022-09-01T08:54:29.938Z,0.80
2022-09-01T08:57:03.805Z,0.80
2022-09-01T08:59:30.414Z,0.73
2022-09-01T09:02:16.461Z,0.85
2022-09-01T09:05:24.801Z,0.85
2022-09-01T09:08:12.616Z,0.80
2022-09-01T09:10:43.618Z,0.70
2022-09-01T09:13:39.298Z,0.90
2022-09-01T09:16:18.933Z,0.93
2022-09-01T09:18:55.605Z,0.73
2022-09-01T09:21:29.972Z,0.90
2022-09-01T09:24:36.997Z,0.70
2022-09-01T09:27:06.092Z,0.90
2022-09-01T09:29:33.964Z,0.80
2022-09-01T09:32:39.352Z,0.65
2022-09-01T09:34:56.066Z,0.80
2022-09-01T09:37:31.842Z,0.80
2022-09-01T09:40:12.346Z,0.68
2022-09-01T09:42:41.541Z,1.00
2022-09-01T09:45:28.673Z,0.60
2022-09-01T09:47:57.188Z,0.80
2022-09-01T09:50:29.604Z,0.68
2022-09-01T09:53:18.344Z,0.70
2022-09-01T09:55:55.416Z,0.68
2022-09-01T09:58:28.141Z,0.68
2022-09-01T10:01:01.048Z,0.70
2022-09-01T10:03:36.669Z,0.63
2022-09-01T10:06:04.841Z,0.73
2022-09-01T10:08:45.413Z,0.60
2022-09-01T10:11:33.480Z,0.77
2022-09-01T10:14:05.930Z,0.70
2022-09-01T10:16:37.498Z,1.00
2022-09-01T10:19:12.495Z,0.77
2022-09-01T10:21:42.354Z,0.60
2022-09-01T10:24:22.350Z,0.70
2022-09-01T10:26:57.124Z,0.70
2022-09-01T10:29:34.813Z,0.73
2022-09-01T10:32:30.702Z,0.75
2022-09-01T10:34:59.507Z,0.75
2022-09-01T10:37:27.649Z,0.80
2022-09-01T10:40:31.723Z,0.80
2022-09-01T10:43:27.418Z,0.70
2022-09-01T10:45:58.879Z,0.60
2022-09-01T10:48:46.109Z,0.63
2022-09-01T10:51:28.151Z,0.77
2022-09-01T10:54:02.264Z,0.40
2022-09-01T10:56:52.007Z,0.57
2022-09-01T10:59:55.769Z,0.60
2022-09-01T11:02:26.358Z,1.40
2022-09-01T11:04:54.498Z,0.70
2022-09-01T11:07:44.468Z,0.60
2022-09-01T11:10:35.418Z,0.98
2022-09-01T11:13:05.326Z,0.70
2022-09-01T11:15:37.543Z,0.60
2022-09-01T11:18:10.121Z,0.60
2022-09-01T11:20:39.754Z,0.52
2022-09-01T11:23:30.723Z,0.70
2022-09-01T11:26:46.162Z,0.60
2022-09-01T11:29:51.340Z,0.50
2022-09-01T11:32:24.452Z,0.60
2022-09-01T11:34:51.703Z,0.70
2022-09-01T11:37:22.844Z,1.27
2022-09-01T11:39:52.428Z,0.77
2022-09-01T11:42:24.013Z,0.70
2022-09-01T11:45:05.094Z,0.80
2022-09-01T11:47:54.489Z,0.90
2022-09-01T11:50:32.423Z,0.70
2022-09-01T11:53:04.655Z,0.60
2022-09-01T11:55:35.112Z,0.77
2022-09-01T11:58:02.480Z,0.68
2022-09-01T12:00:44.163Z,0.90
2022-09-01T12:03:25.869Z,0.50
2022-09-01T12:06:02.945Z,0.73
2022-09-01T12:08:35.359Z,0.55
2022-09-01T12:11:12.241Z,0.50
2022-09-01T12:13:40.890Z,0.50
2022-09-01T12:16:18.758Z,0.60
2022-09-01T12:18:48.369Z,0.90
2022-09-01T12:21:30.612Z,0.68
2022-09-01T12:24:21.613Z,0.60
2022-09-01T12:26:51.009Z,0.50
2022-09-01T12:29:20.976Z,0.60
2022-09-01T12:31:50.485Z,0.50
2022-09-01T12:34:38.483Z,0.50
2022-09-01T12:37:26.377Z,0.50
2022-09-01T12:39:55.059Z,0.70
2022-09-01T12:42:21.714Z,0.63
2022-09-01T12:45:09.826Z,0.50
2022-09-01T12:47:36.716Z,0.70
2022-09-01T12:50:12.538Z,0.70
2022-09-01T12:53:15.440Z,0.50
2022-09-01T12:55:55.779Z,0.60
2022-09-01T12:58:30.170Z,0.60
2022-09-01T13:01:06.340Z,0.50
2022-09-01T13:03:38.720Z,0.65
2022-09-01T13:06:05.433Z,0.60
2022-09-01T13:08:34.596Z,0.60
2022-09-01T13:11:11.418Z,0.65
2022-09-01T13:13:38.569Z,1.10
2022-09-01T13:16:13.083Z,0.45
2022-09-01T13:21:30.227Z,0.57
2022-09-01T13:23:57.393Z,0.80
2022-09-01T13:26:24.198Z,0.80
2022-09-01T13:28:51.758Z,0.60
2022-09-01T13:31:34.326Z,0.50
2022-09-01T13:34:10.910Z,0.63
2022-09-01T13:36:49.188Z,0.77
2022-09-01T13:39:16.901Z,0.68
2022-09-01T13:41:45.382Z,0.70
2022-09-01T13:44:12.002Z,0.65
2022-09-01T13:52:13.276Z,0.60
2022-09-01T13:54:40.303Z,0.70
2022-09-01T13:57:06.957Z,0.40
2022-09-01T13:59:33.475Z,0.40
2022-09-01T14:02:01.774Z,0.60
2022-09-01T14:04:28.519Z,0.90
2022-09-01T14:06:55.735Z,0.60
2022-09-01T14:09:22.733Z,0.50
2022-09-01T14:11:49.321Z,0.60
2022-09-01T14:14:15.871Z,0.80
2022-09-01T14:16:42.545Z,0.65
2022-09-01T14:19:12.089Z,0.60
2022-09-01T14:21:39.352Z,0.57
2022-09-01T14:26:37.641Z,0.57
2022-09-01T14:29:04.215Z,0.50
2022-09-01T14:31:32.002Z,0.63
2022-09-01T14:33:58.677Z,0.60
2022-09-01T14:36:26.967Z,0.60
2022-09-01T14:38:54.231Z,0.50
2022-09-01T14:41:26.465Z,0.70
2022-09-01T14:43:57.548Z,0.70
2022-09-01T14:46:25.558Z,0.60
2022-09-01T14:48:52.204Z,0.60
2022-09-01T14:52:10.406Z,0.60
2022-09-01T14:54:15.260Z,0.60
2022-09-01T14:56:42.043Z,0.63
2022-09-01T14:59:10.992Z,0.43
2022-09-01T15:01:37.656Z,0.70
2022-09-01T15:04:04.631Z,0.40
2022-09-01T15:06:31.803Z,0.65
2022-09-01T15:08:59.772Z,0.80
2022-09-01T15:11:26.526Z,0.60
2022-09-01T15:13:53.309Z,0.60
2022-09-01T15:16:23.105Z,0.70
2022-09-01T15:18:50.457Z,0.70
2022-09-01T15:21:32.111Z,0.52
2022-09-01T15:23:59.583Z,0.50
2022-09-01T15:26:26.786Z,0.70
2022-09-01T15:28:54.000Z,0.50
2022-09-01T15:31:32.193Z,0.60
2022-09-01T15:34:01.946Z,0.70
2022-09-01T15:36:30.336Z,0.60
2022-09-01T15:38:58.431Z,0.65
2022-09-01T15:41:28.803Z,0.70
2022-09-01T15:43:58.174Z,0.70
2022-09-01T15:46:32.843Z,0.60
2022-09-01T15:49:04.789Z,0.65
2022-09-01T15:51:39.679Z,0.60
2022-09-01T15:54:18.967Z,0.70
2022-09-01T15:56:49.312Z,0.77
2022-09-01T15:59:16.563Z,0.60
2022-09-01T16:01:45.546Z,0.73
2022-09-01T16:04:19.029Z,0.70
2022-09-01T16:06:48.643Z,0.80
2022-09-01T16:09:15.268Z,0.52
2022-09-01T16:11:42.159Z,0.60
2022-09-01T16:14:08.773Z,0.50
2022-09-01T16:16:59.863Z,0.70
2022-09-01T16:19:41.916Z,0.60
2022-09-01T16:22:28.414Z,0.70
2022-09-01T16:25:01.933Z,0.70
2022-09-01T16:27:40.001Z,0.70
2022-09-01T16:30:11.023Z,0.55
2022-09-01T16:32:41.993Z,0.77
2022-09-01T16:35:08.802Z,0.63
2022-09-01T16:37:48.712Z,0.77
2022-09-01T16:40:42.192Z,0.82
2022-09-01T16:43:12.569Z,0.85
2022-09-01T16:46:08.536Z,0.70
2022-09-01T16:49:07.511Z,0.57
2022-09-01T16:52:09.556Z,0.70
2022-09-01T16:54:44.781Z,0.80
2022-09-01T16:57:23.539Z,0.70
2022-09-01T16:59:55.468Z,0.70
2022-09-01T17:02:42.205Z,0.57
2022-09-01T17:05:22.672Z,0.70
2022-09-01T17:08:07.795Z,0.95
2022-09-01T17:10:41.998Z,0.80
2022-09-01T17:13:17.911Z,0.63
2022-09-01T17:15:49.633Z,0.60
2022-09-01T17:18:22.473Z,0.70
2022-09-01T17:20:58.114Z,0.77
2022-09-01T17:23:29.941Z,0.77
2022-09-01T17:26:29.712Z,0.90
2022-09-01T17:29:00.302Z,0.63
2022-09-01T17:31:41.946Z,0.63
2022-09-01T17:34:24.207Z,0.70
2022-09-01T17:37:02.086Z,0.60
2022-09-01T17:39:52.022Z,0.90
2022-09-01T17:42:21.791Z,0.68
2022-09-01T17:44:56.394Z,0.85
2022-09-01T17:47:52.426Z,0.80
2022-09-01T17:50:25.328Z,0.73
2022-09-01T17:52:55.533Z,0.85
2022-09-01T17:56:01.250Z,0.93
2022-09-01T17:58:40.733Z,0.80
2022-09-01T18:01:23.816Z,0.90
2022-09-01T18:04:11.482Z,0.82
2022-09-01T18:07:01.741Z,0.93
2022-09-01T18:09:30.190Z,0.82
2022-09-01T18:12:09.846Z,0.80
2022-09-01T18:14:48.089Z,0.70
2022-09-01T18:17:17.786Z,1.00
2022-09-01T18:19:47.908Z,0.90
2022-09-01T18:22:21.562Z,0.90
2022-09-01T18:24:56.419Z,1.23
2022-09-01T18:27:24.941Z,0.90
2022-09-01T18:29:53.634Z,0.80
2022-09-01T18:32:43.531Z,0.85
2022-09-01T18:35:19.118Z,1.00
2022-09-01T18:37:58.271Z,0.90
2022-09-01T18:40:56.310Z,1.20
2022-09-01T18:43:40.801Z,0.90
2022-09-01T18:46:23.693Z,0.93
2022-09-01T18:49:11.347Z,0.90
2022-09-01T18:51:47.931Z,0.90
2022-09-01T18:54:21.261Z,0.98
2022-09-01T18:57:12.011Z,0.90
2022-09-01T19:00:00.166Z,0.90
2022-09-01T19:02:44.074Z,0.88
2022-09-01T19:05:34.321Z,1.00
2022-09-01T19:08:19.847Z,1.00
2022-09-01T19:11:03.917Z,1.00
2022-09-01T19:13:54.939Z,1.10
2022-09-01T19:16:40.954Z,1.13
2022-09-01T19:19:20.769Z,0.90
2022-09-01T19:21:51.821Z,0.90
2022-09-01T19:24:33.273Z,1.00
2022-09-01T19:27:20.716Z,1.10
2022-09-01T19:29:56.140Z,1.20
2022-09-01T19:32:25.832Z,1.10
2022-09-01T19:34:58.497Z,1.25
2022-09-01T19:37:25.704Z,1.10
2022-09-01T19:39:54.370Z,1.00
2022-09-01T19:42:34.803Z,1.02
2022-09-01T19:45:22.494Z,1.20
2022-09-01T19:48:04.615Z,1.00
2022-09-01T19:51:07.366Z,0.88
2022-09-01T19:53:52.238Z,0.90
2022-09-01T19:56:49.539Z,1.13
2022-09-01T19:59:25.276Z,1.17
2022-09-01T20:02:00.002Z,0.90
2022-09-01T20:04:38.455Z,1.20
2022-09-01T20:07:10.045Z,1.70
2022-09-01T20:09:52.733Z,1.30
2022-09-01T20:12:41.319Z,1.40
2022-09-01T20:15:13.774Z,1.30
2022-09-01T20:17:48.342Z,1.20
2022-09-01T20:20:43.443Z,1.30
2022-09-01T20:23:20.755Z,1.00
2022-09-01T20:25:53.838Z,1.10
2022-09-01T20:28:26.357Z,1.02
2022-09-01T20:31:03.241Z,1.20
2022-09-01T20:33:46.111Z,1.08
2022-09-01T20:36:19.210Z,1.13
2022-09-01T20:39:12.518Z,1.23
2022-09-01T20:41:49.251Z,1.10
2022-09-01T20:45:00.238Z,1.30
2022-09-01T20:47:29.389Z,1.23
2022-09-01T20:49:59.514Z,1.05
2022-09-01T20:52:41.432Z,1.08
2022-09-01T20:55:21.864Z,1.17
2022-09-01T20:58:20.018Z,1.25
2022-09-01T21:00:55.638Z,1.30
2022-09-01T21:03:48.248Z,1.17
2022-09-01T21:06:26.072Z,0.93
2022-09-01T21:09:14.200Z,1.38
2022-09-01T21:11:48.571Z,1.08
2022-09-01T21:14:45.461Z,1.35
2022-09-01T21:17:18.778Z,1.10
2022-09-01T21:20:03.570Z,1.25
2022-09-01T21:22:30.155Z,1.25
2022-09-01T21:24:56.686Z,1.38
2022-09-01T21:27:26.604Z,1.15
2022-09-01T21:30:10.254Z,1.02
2022-09-01T21:32:37.452Z,1.30
2022-09-01T21:35:06.466Z,1.20
2022-09-01T21:37:33.108Z,1.00
2022-09-01T21:40:00.174Z,1.00
2022-09-01T21:42:36.150Z,1.10
2022-09-01T21:45:09.658Z,1.15
2022-09-01T21:47:36.515Z,1.05
2022-09-01T21:50:04.875Z,1.00
2022-09-01T21:52:31.418Z,1.20
2022-09-01T21:54:58.016Z,1.33
2022-09-01T21:57:24.561Z,0.90
2022-09-01T21:59:51.616Z,1.40
2022-09-01T22:02:20.063Z,1.00
2022-09-01T22:04:48.958Z,1.20
2022-09-01T22:07:17.065Z,1.20
2022-09-01T22:09:45.134Z,1.15
2022-09-01T22:12:12.557Z,1.10
2022-09-01T22:14:39.133Z,1.15
2022-09-01T22:17:05.876Z,1.50
2022-09-01T22:19:34.253Z,1.20
2022-09-01T22:22:00.764Z,1.30
2022-09-01T22:24:27.255Z,1.20
2022-09-01T22:26:53.812Z,1.05
2022-09-01T22:29:20.364Z,1.08
2022-09-01T22:31:46.890Z,1.13
2022-09-01T22:34:13.644Z,1.20
2022-09-01T22:36:44.175Z,1.10
2022-09-01T22:39:11.922Z,1.17
2022-09-01T22:41:40.243Z,1.10
2022-09-01T22:44:09.841Z,1.15
2022-09-01T22:46:37.714Z,1.30
2022-09-01T22:49:05.735Z,0.93
2022-09-01T22:51:32.966Z,1.10
2022-09-01T22:53:59.579Z,0.90
2022-09-01T22:56:32.142Z,0.90
2022-09-01T22:59:03.605Z,1.58
2022-09-01T23:01:35.710Z,1.17
2022-09-01T23:04:04.914Z,0.90
2022-09-01T23:06:33.483Z,1.00
2022-09-01T23:09:02.384Z,1.27
2022-09-01T23:11:29.215Z,1.20
2022-09-01T23:13:56.469Z,1.23
2022-09-01T23:16:24.339Z,0.90
2022-09-01T23:18:51.992Z,0.90
2022-09-01T23:21:24.049Z,0.90
2022-09-01T23:23:58.221Z,0.95
2022-09-01T23:26:26.610Z,0.90
2022-09-01T23:28:53.784Z,0.98
2022-09-01T23:31:22.915Z,1.00
2022-09-01T23:33:49.514Z,0.90
2022-09-01T23:36:19.659Z,0.93
2022-09-01T23:38:47.382Z,0.90
2022-09-01T23:41:17.599Z,0.95
2022-09-01T23:43:44.314Z,0.90
2022-09-01T23:46:27.202Z,0.98
2022-09-01T23:48:54.649Z,0.70
2022-09-01T23:51:22.843Z,1.00
2022-09-01T23:53:49.749Z,0.80
2022-09-01T23:56:19.382Z,0.90
2022-09-01T23:58:46.600Z,0.90
